Time;durP1;ratioP1;P1;durP2;ratioP2;P2;SDS_P1;SDS_P2;PMS_P1;PMS_P2;Temp;Humidity;BMP_temperature;BMP_pressure;BME280_temperature;BME280_humidity;BME280_pressure;Samples;Min_cycle;Max_cycle;Signal;HPM_P1;HPM_P2
2022/01/11 00:01:41;;;;;;;;;;;;;;;-14.12;91.71;103050.06;5073108;28;20274;-74
2022/01/11 00:04:08;;;;;;;;;;;;;;;-14.15;91.50;103059.78;5072946;28;19926;-75
2022/01/11 00:06:35;;;;;;;;;;;;;;;-14.19;91.53;103053.66;5072883;28;19927;-75
2022/01/11 00:09:07;;;;;;;;;;;;;;;-14.23;91.29;103050.78;5072875;28;19928;-75
2022/01/11 00:11:35;;;;;;;;;;;;;;;-14.31;91.54;103053.53;5072733;28;19920;-74
2022/01/11 00:14:04;;;;;;;;;;;;;;;-14.35;91.23;103043.16;5072977;28;19924;-76
2022/01/11 00:16:31;;;;;;;;;;;;;;;-14.47;90.57;103043.00;5072178;28;19943;-73
2022/01/11 00:19:01;;;;;;;;;;;;;;;-14.53;91.02;103040.91;5071443;28;19928;-72
2022/01/11 00:21:28;;;;;;;;;;;;;;;-14.60;91.42;103038.66;5072796;28;19920;-72
2022/01/11 00:26:39;;;;;;;;;;;;;;;-14.61;91.11;103031.91;5072850;28;20382;-72
2022/01/11 00:29:07;;;;;;;;;;;;;;;-14.55;90.84;103034.03;5072750;28;20391;-72
2022/01/11 00:31:33;;;;;;;;;;;;;;;-14.51;90.92;103028.53;5072625;28;19935;-69
2022/01/11 00:34:01;;;;;;;;;;;;;;;-14.39;91.28;103027.00;5072560;28;20366;-71
2022/01/11 00:36:40;;;;;;;;;;;;;;;-14.41;90.86;103023.53;5072564;28;19924;-71
2022/01/11 00:39:07;;;;;;;;;;;;;;;-14.43;90.85;103030.03;5072705;28;20026;-72
2022/01/11 00:41:33;;;;;;;;;;;;;;;-14.41;90.79;103031.03;5072584;28;19920;-72
2022/01/11 00:44:00;;;;;;;;;;;;;;;-14.40;90.83;103024.41;5072762;28;19920;-72
2022/01/11 00:46:28;;;;;;;;;;;;;;;-14.45;91.17;103020.66;5072663;28;19920;-71
2022/01/11 00:48:54;;;;;;;;;;;;;;;-14.53;90.67;103017.56;5072666;28;19931;-71
2022/01/11 00:51:21;;;;;;;;;;;;;;;-14.53;90.71;103017.56;5072118;28;19920;-73
2022/01/11 00:53:47;;;;;;;;;;;;;;;-14.55;91.06;103017.41;5072455;28;20295;-74
2022/01/11 00:56:14;;;;;;;;;;;;;;;-14.49;90.78;103009.50;5072550;28;20379;-70
2022/01/11 00:58:41;;;;;;;;;;;;;;;-14.54;91.57;103009.19;5072562;28;19921;-73
2022/01/11 01:01:08;;;;;;;;;;;;;;;-14.51;91.26;103011.03;5072454;28;19982;-73
2022/01/11 01:03:36;;;;;;;;;;;;;;;-14.47;91.07;103003.00;5072465;28;19921;-73
2022/01/11 01:06:03;;;;;;;;;;;;;;;-14.44;90.99;103002.38;5072433;28;20012;-70
2022/01/11 01:08:30;;;;;;;;;;;;;;;-14.42;91.11;102989.25;5072313;28;19920;-72
2022/01/11 01:10:57;;;;;;;;;;;;;;;-14.43;91.81;103000.03;5072319;28;19920;-74
2022/01/11 01:13:26;;;;;;;;;;;;;;;-14.35;91.36;102999.03;5072402;28;20378;-71
2022/01/11 01:15:54;;;;;;;;;;;;;;;-14.36;90.97;102981.38;5072429;28;20354;-72
2022/01/11 01:18:22;;;;;;;;;;;;;;;-14.36;91.88;102987.25;5072234;28;19931;-72
2022/01/11 01:20:50;;;;;;;;;;;;;;;-14.30;91.98;102979.41;5072623;28;19995;-73
2022/01/11 01:23:17;;;;;;;;;;;;;;;-14.26;91.08;102982.25;5072180;28;20325;-72
2022/01/11 01:25:44;;;;;;;;;;;;;;;-14.26;91.87;102974.75;5072536;28;20698;-72
2022/01/11 01:28:11;;;;;;;;;;;;;;;-14.24;91.48;102964.88;5072365;28;19920;-73
2022/01/11 01:30:38;;;;;;;;;;;;;;;-14.22;92.11;102958.38;5072130;28;19920;-72
2022/01/11 01:33:05;;;;;;;;;;;;;;;-14.18;91.53;102956.97;5074040;28;19943;-73
2022/01/11 01:35:37;;;;;;;;;;;;;;;-14.14;91.83;102949.00;5075971;28;19928;-67
2022/01/11 01:38:05;;;;;;;;;;;;;;;-14.06;92.16;102951.34;5075788;28;19959;-73
2022/01/11 01:40:37;;;;;;;;;;;;;;;-14.03;92.06;102933.19;5075868;28;19920;-68
2022/01/11 01:43:04;;;;;;;;;;;;;;;-13.98;92.12;102931.06;5075705;28;19930;-72
2022/01/11 01:45:31;;;;;;;;;;;;;;;-13.93;92.53;102915.66;5075934;28;19928;-73
2022/01/11 01:47:58;;;;;;;;;;;;;;;-13.88;92.56;102911.88;5075788;28;19921;-72
2022/01/11 01:50:25;;;;;;;;;;;;;;;-13.92;92.39;102917.41;5075960;28;20011;-73
2022/01/11 01:52:52;;;;;;;;;;;;;;;-13.93;91.97;102928.16;5075692;28;19946;-73
2022/01/11 01:55:20;;;;;;;;;;;;;;;-13.97;92.38;102930.31;5075441;28;19921;-71
2022/01/11 01:57:47;;;;;;;;;;;;;;;-13.87;92.75;102922.75;5075577;28;19924;-70
2022/01/11 02:00:14;;;;;;;;;;;;;;;-13.92;92.76;102922.44;5075709;28;19920;-72
2022/01/11 02:02:40;;;;;;;;;;;;;;;-13.87;92.28;102923.66;5075459;28;20011;-73
2022/01/11 02:05:07;;;;;;;;;;;;;;;-13.89;92.04;102914.28;5075766;28;19921;-72
2022/01/11 02:07:34;;;;;;;;;;;;;;;-13.90;92.21;102920.91;5075520;28;19927;-72
2022/01/11 02:10:02;;;;;;;;;;;;;;;-13.89;92.95;102907.66;5075496;28;19920;-74
2022/01/11 02:12:30;;;;;;;;;;;;;;;-13.83;92.80;102899.75;5075159;28;19921;-73
2022/01/11 02:14:56;;;;;;;;;;;;;;;-13.72;93.25;102908.06;5075350;28;19920;-73
2022/01/11 02:17:26;;;;;;;;;;;;;;;-13.76;92.68;102903.59;5075289;28;19927;-72
2022/01/11 02:19:54;;;;;;;;;;;;;;;-13.80;92.63;102897.47;5075101;28;19920;-72
2022/01/11 02:22:22;;;;;;;;;;;;;;;-13.82;92.54;102902.38;5088102;22;19925;-77
2022/01/11 02:24:48;;;;;;;;;;;;;;;-13.79;92.41;102881.72;5075589;28;19920;-77
2022/01/11 02:27:15;;;;;;;;;;;;;;;-13.62;93.32;102885.50;5075095;28;19924;-77
2022/01/11 02:29:43;;;;;;;;;;;;;;;-13.45;93.52;102892.69;5075053;28;19927;-77
2022/01/11 02:32:09;;;;;;;;;;;;;;;-13.26;93.77;102884.06;5074804;28;19957;-77
2022/01/11 02:34:37;;;;;;;;;;;;;;;-13.16;93.50;102873.94;5074849;28;19928;-77
2022/01/11 02:37:03;;;;;;;;;;;;;;;-13.10;93.32;102881.03;5075016;28;19964;-77
2022/01/11 02:39:31;;;;;;;;;;;;;;;-13.02;93.74;102870.84;5074618;28;19927;-77
2022/01/11 02:45:00;;;;;;;;;;;;;;;-12.78;94.04;102868.41;5074818;28;19969;-76
2022/01/11 02:47:27;;;;;;;;;;;;;;;-12.67;94.13;102865.03;5074675;28;20378;-77
2022/01/11 02:49:53;;;;;;;;;;;;;;;-12.58;94.42;102858.22;5074602;28;19920;-77
2022/01/11 02:52:20;;;;;;;;;;;;;;;-12.54;94.41;102860.16;5381695;22;19927;-76
2022/01/11 02:54:48;;;;;;;;;;;;;;;-12.45;94.08;102844.91;5748169;22;19924;-76
2022/01/11 02:57:15;;;;;;;;;;;;;;;-12.36;94.32;102853.09;5073438;28;19927;-77
2022/01/11 02:59:42;;;;;;;;;;;;;;;-12.31;94.22;102848.41;5074276;28;19920;-77
2022/01/11 03:04:36;;;;;;;;;;;;;;;-12.33;94.49;102830.75;5052736;28;20371;-77
2022/01/11 03:07:03;;;;;;;;;;;;;;;-12.33;94.16;102823.22;5054223;28;19925;-76
2022/01/11 03:09:36;;;;;;;;;;;;;;;-12.31;94.86;102816.66;5054275;28;19920;-77
2022/01/11 03:14:39;;;;;;;;;;;;;;;-12.24;94.71;102807.94;5378793;22;19921;-77
2022/01/11 03:17:06;;;;;;;;;;;;;;;-12.28;93.68;102798.44;5074061;28;19924;-77
2022/01/11 03:19:32;;;;;;;;;;;;;;;-12.31;94.06;102808.25;5074133;28;19982;-77
2022/01/11 03:21:59;;;;;;;;;;;;;;;-12.31;94.40;102804.09;5077343;22;19935;-75
2022/01/11 03:24:25;;;;;;;;;;;;;;;-12.34;94.33;102798.88;5053865;28;20279;-74
2022/01/11 03:26:52;;;;;;;;;;;;;;;-12.40;93.77;102788.44;5054188;28;19925;-74
2022/01/11 03:29:18;;;;;;;;;;;;;;;-12.44;93.85;102793.09;5053962;28;19928;-74
2022/01/11 03:31:48;;;;;;;;;;;;;;;-12.46;94.02;102790.47;5053724;28;19924;-75
2022/01/11 03:34:19;;;;;;;;;;;;;;;-12.45;93.69;102783.84;5053762;28;19925;-74
2022/01/11 03:36:45;;;;;;;;;;;;;;;-12.45;94.12;102777.19;5053617;28;20330;-72
2022/01/11 03:39:12;;;;;;;;;;;;;;;-12.46;93.70;102779.56;5053623;28;20275;-73
2022/01/11 03:41:38;;;;;;;;;;;;;;;-12.47;93.75;102785.38;5053614;28;19920;-74
2022/01/11 03:44:06;;;;;;;;;;;;;;;-12.45;93.75;102769.66;5053861;28;19921;-74
2022/01/11 03:46:33;;;;;;;;;;;;;;;-12.51;93.58;102777.63;5053387;28;20421;-74
2022/01/11 03:49:01;;;;;;;;;;;;;;;-12.47;93.83;102778.72;5053310;28;19925;-74
2022/01/11 03:51:27;;;;;;;;;;;;;;;-12.50;93.65;102774.34;5053287;28;19920;-73
2022/01/11 03:54:01;;;;;;;;;;;;;;;-12.50;93.20;102764.31;5053332;28;19920;-74
2022/01/11 03:56:27;;;;;;;;;;;;;;;-12.47;93.71;102768.69;5052633;28;19928;-74
2022/01/11 03:58:54;;;;;;;;;;;;;;;-12.48;93.57;102756.91;5053467;28;19924;-75
2022/01/11 04:01:21;;;;;;;;;;;;;;;-12.49;93.30;102760.16;5053293;28;19926;-74
2022/01/11 04:03:48;;;;;;;;;;;;;;;-12.50;93.06;102749.28;5053102;28;19928;-71
2022/01/11 04:06:16;;;;;;;;;;;;;;;-12.52;93.03;102755.81;5053245;28;19928;-74
2022/01/11 04:08:44;;;;;;;;;;;;;;;-12.55;93.35;102755.59;5053074;28;19928;-74
2022/01/11 04:11:11;;;;;;;;;;;;;;;-12.60;93.01;102744.38;5053330;28;19927;-74
2022/01/11 04:13:38;;;;;;;;;;;;;;;-12.60;93.35;102741.84;5053134;28;19920;-74
2022/01/11 04:16:05;;;;;;;;;;;;;;;-12.62;92.71;102733.34;5052849;28;19921;-74
2022/01/11 04:18:31;;;;;;;;;;;;;;;-12.63;93.19;102730.75;5053160;28;19925;-74
2022/01/11 04:20:58;;;;;;;;;;;;;;;-12.74;92.18;102732.47;5053348;28;19921;-70
2022/01/11 04:23:27;;;;;;;;;;;;;;;-12.92;92.26;102734.53;5053006;28;19920;-73
2022/01/11 04:25:53;;;;;;;;;;;;;;;-13.01;92.35;102736.41;5052921;28;19928;-74
2022/01/11 04:28:23;;;;;;;;;;;;;;;-13.04;91.99;102739.56;5052758;28;19921;-74
2022/01/11 04:30:49;;;;;;;;;;;;;;;-13.11;91.91;102721.44;5052610;28;20007;-74
2022/01/11 04:33:16;;;;;;;;;;;;;;;-13.13;91.89;102730.50;5052853;28;19924;-74
2022/01/11 04:35:44;;;;;;;;;;;;;;;-13.23;91.66;102737.34;5052659;28;19920;-67
2022/01/11 04:38:11;;;;;;;;;;;;;;;-13.22;91.83;102741.59;5052665;28;19921;-74
2022/01/11 04:40:39;;;;;;;;;;;;;;;-13.19;91.51;102721.75;5052770;28;19927;-74
2022/01/11 04:43:05;;;;;;;;;;;;;;;-13.22;91.69;102721.53;5052497;28;19921;-73
2022/01/11 04:45:32;;;;;;;;;;;;;;;-13.24;91.90;102723.06;5052873;28;19921;-74
2022/01/11 04:47:58;;;;;;;;;;;;;;;-13.22;91.48;102708.16;5052898;28;19921;-74
2022/01/11 04:50:26;;;;;;;;;;;;;;;-13.31;91.35;102698.34;5052942;28;19920;-73
2022/01/11 04:52:52;;;;;;;;;;;;;;;-13.33;91.56;102697.41;5052454;28;19920;-74
2022/01/11 04:55:19;;;;;;;;;;;;;;;-13.35;91.57;102688.03;5052441;28;20291;-75
2022/01/11 04:57:47;;;;;;;;;;;;;;;-13.47;91.39;102677.97;5052368;28;19927;-74
2022/01/11 05:00:14;;;;;;;;;;;;;;;-13.51;91.28;102686.91;5052714;28;19935;-73
2022/01/11 05:02:41;;;;;;;;;;;;;;;-13.51;91.68;102686.00;5052691;28;19928;-74
2022/01/11 05:05:07;;;;;;;;;;;;;;;-13.47;91.27;102673.81;5052511;28;20438;-74
2022/01/11 05:07:34;;;;;;;;;;;;;;;-13.49;91.54;102675.34;5055282;28;19925;-74
2022/01/11 05:10:01;;;;;;;;;;;;;;;-13.53;91.29;102683.41;5056486;28;19927;-64
2022/01/11 05:12:27;;;;;;;;;;;;;;;-13.58;91.19;102673.81;5056234;28;19921;-75
2022/01/11 05:14:55;;;;;;;;;;;;;;;-13.57;91.73;102663.91;5056137;28;20375;-74
2022/01/11 05:17:22;;;;;;;;;;;;;;;-13.61;91.28;102674.47;5056072;28;19932;-73
2022/01/11 05:19:48;;;;;;;;;;;;;;;-13.62;91.51;102651.03;5056059;28;20378;-73
2022/01/11 05:22:15;;;;;;;;;;;;;;;-13.62;91.59;102651.03;5056633;28;20283;-67
2022/01/11 05:24:42;;;;;;;;;;;;;;;-13.60;91.60;102652.03;5056236;28;19921;-74
2022/01/11 05:27:08;;;;;;;;;;;;;;;-13.55;91.97;102638.97;5056170;28;20334;-73
2022/01/11 05:29:35;;;;;;;;;;;;;;;-13.52;91.85;102652.59;5056216;28;19928;-73
2022/01/11 05:32:04;;;;;;;;;;;;;;;-13.46;92.35;102645.53;5055921;28;19925;-66
2022/01/11 05:34:30;;;;;;;;;;;;;;;-13.41;92.37;102643.34;5056145;28;19927;-74
2022/01/11 05:36:57;;;;;;;;;;;;;;;-13.29;92.52;102626.69;5055983;28;19928;-75
2022/01/11 05:39:24;;;;;;;;;;;;;;;-13.23;92.33;102646.25;5055886;28;20270;-71
2022/01/11 05:41:50;;;;;;;;;;;;;;;-13.26;92.96;102619.38;5055764;28;19921;-77
2022/01/11 05:44:17;;;;;;;;;;;;;;;-13.05;92.29;102627.53;5055874;28;19921;-72
2022/01/11 05:46:44;;;;;;;;;;;;;;;-12.98;92.64;102632.22;5056166;28;19928;-75
2022/01/11 05:49:11;;;;;;;;;;;;;;;-12.88;92.87;102622.84;5055605;28;19927;-76
2022/01/11 05:51:38;;;;;;;;;;;;;;;-12.83;93.10;102624.03;5055686;28;19921;-75
2022/01/11 05:54:05;;;;;;;;;;;;;;;-12.73;92.87;102624.78;5055442;28;19928;-72
2022/01/11 05:56:31;;;;;;;;;;;;;;;-12.67;92.87;102633.50;5055555;28;19927;-74
2022/01/11 05:58:58;;;;;;;;;;;;;;;-12.63;92.70;102618.78;5055733;28;19928;-76
2022/01/11 06:01:24;;;;;;;;;;;;;;;-12.59;92.97;102628.22;5055704;28;19924;-74
2022/01/11 06:03:51;;;;;;;;;;;;;;;-12.54;93.05;102611.88;5055460;28;19921;-73
2022/01/11 06:06:19;;;;;;;;;;;;;;;-12.52;92.49;102625.38;5055406;28;19921;-68
2022/01/11 06:08:45;;;;;;;;;;;;;;;-12.50;93.21;102611.31;5055949;28;19943;-72
2022/01/11 06:11:12;;;;;;;;;;;;;;;-12.46;92.75;102629.94;5055414;28;19928;-74
2022/01/11 06:13:39;;;;;;;;;;;;;;;-12.42;93.12;102613.50;5055329;28;19978;-73
2022/01/11 06:16:07;;;;;;;;;;;;;;;-12.40;92.62;102605.31;5055187;28;20283;-70
2022/01/11 06:18:34;;;;;;;;;;;;;;;-12.33;93.40;102609.97;5054292;28;19920;-74
2022/01/11 06:21:01;;;;;;;;;;;;;;;-12.26;93.50;102600.34;5055795;28;19928;-73
2022/01/11 06:23:29;;;;;;;;;;;;;;;-12.22;93.24;102603.16;5054920;28;19921;-71
2022/01/11 06:25:55;;;;;;;;;;;;;;;-12.16;93.30;102596.03;5054899;28;20282;-73
2022/01/11 06:28:22;;;;;;;;;;;;;;;-12.09;93.15;102595.69;5055380;28;19920;-71
2022/01/11 06:30:48;;;;;;;;;;;;;;;-12.02;93.40;102589.44;5055241;28;19928;-71
2022/01/11 06:33:15;;;;;;;;;;;;;;;-11.92;93.43;102598.41;5054963;28;19920;-71
2022/01/11 06:35:41;;;;;;;;;;;;;;;-11.90;93.81;102596.88;5055122;28;19921;-75
2022/01/11 06:38:08;;;;;;;;;;;;;;;-11.86;93.25;102576.25;5055113;28;20279;-77
2022/01/11 06:40:36;;;;;;;;;;;;;;;-11.80;93.15;102581.63;5054611;28;19921;-77
2022/01/11 06:43:03;;;;;;;;;;;;;;;-11.76;93.44;102588.59;5054278;28;19920;-74
2022/01/11 06:45:29;;;;;;;;;;;;;;;-11.73;92.86;102570.34;5051035;28;20283;-74
2022/01/11 06:47:56;;;;;;;;;;;;;;;-11.76;92.50;102578.56;5053972;28;19920;-74
2022/01/11 06:50:23;;;;;;;;;;;;;;;-11.82;92.64;102588.19;5053381;28;19920;-73
2022/01/11 06:52:49;;;;;;;;;;;;;;;-11.85;92.99;102563.75;5052280;28;19920;-69
2022/01/11 06:55:17;;;;;;;;;;;;;;;-11.96;92.28;102559.72;5054364;28;19925;-74
2022/01/11 06:57:45;;;;;;;;;;;;;;;-12.04;92.58;102567.50;5054410;28;19951;-74
2022/01/11 07:00:12;;;;;;;;;;;;;;;-12.07;92.88;102546.47;5054359;28;19921;-73
2022/01/11 07:02:39;;;;;;;;;;;;;;;-12.08;92.82;102544.69;5054467;28;19921;-74
2022/01/11 07:05:06;;;;;;;;;;;;;;;-12.04;93.00;102550.81;5054306;28;20359;-72
2022/01/11 07:07:33;;;;;;;;;;;;;;;-11.99;92.97;102562.03;5054386;28;19928;-69
2022/01/11 07:10:00;;;;;;;;;;;;;;;-12.00;93.06;102551.88;5054139;28;19920;-72
2022/01/11 07:12:26;;;;;;;;;;;;;;;-12.02;92.71;102549.28;5054110;28;19944;-73
2022/01/11 07:14:54;;;;;;;;;;;;;;;-12.02;92.87;102558.41;5053784;28;20397;-72
2022/01/11 07:17:23;;;;;;;;;;;;;;;-11.96;93.11;102553.81;5054146;28;19928;-67
2022/01/11 07:19:49;;;;;;;;;;;;;;;-11.88;92.91;102558.56;5053989;28;19921;-73
2022/01/11 07:22:16;;;;;;;;;;;;;;;-11.84;92.57;102550.44;5065038;28;19939;-74
2022/01/11 07:24:42;;;;;;;;;;;;;;;-11.84;93.12;102540.41;5073790;28;20366;-72
2022/01/11 07:27:09;;;;;;;;;;;;;;;-11.73;93.14;102545.25;5073876;28;19921;-67
2022/01/11 07:29:36;;;;;;;;;;;;;;;-11.71;92.43;102544.56;5074081;28;19943;-67
2022/01/11 07:32:04;;;;;;;;;;;;;;;-11.67;92.85;102538.94;5073761;28;19921;-68
2022/01/11 07:34:31;;;;;;;;;;;;;;;-11.65;92.38;102541.56;5073630;28;19928;-66
2022/01/11 07:36:57;;;;;;;;;;;;;;;-11.67;92.71;102531.41;5073915;28;19921;-75
2022/01/11 07:39:24;;;;;;;;;;;;;;;-11.65;92.66;102532.38;5073552;28;19928;-66
2022/01/11 07:41:51;;;;;;;;;;;;;;;-11.58;93.43;102531.16;5073263;28;19920;-72
2022/01/11 07:44:17;;;;;;;;;;;;;;;-11.57;92.74;102525.34;5093227;28;19973;-74
2022/01/11 07:46:45;;;;;;;;;;;;;;;-11.53;92.49;102531.41;5093621;28;19927;-70
2022/01/11 07:49:12;;;;;;;;;;;;;;;-11.52;93.24;102516.44;5093308;28;19920;-68
2022/01/11 07:51:39;;;;;;;;;;;;;;;-11.44;93.94;102512.78;5093234;28;20278;-65
2022/01/11 07:54:06;;;;;;;;;;;;;;;-11.40;93.81;102502.16;5093565;28;19920;-69
2022/01/11 07:56:33;;;;;;;;;;;;;;;-11.31;93.16;102504.34;5093476;28;19920;-67
2022/01/11 07:58:59;;;;;;;;;;;;;;;-11.26;93.59;102497.97;5093189;28;20305;-67
2022/01/11 08:01:26;;;;;;;;;;;;;;;-11.21;93.78;102493.22;5093556;28;19927;-68
2022/01/11 08:03:52;;;;;;;;;;;;;;;-11.11;93.43;102485.47;5093831;28;19920;-74
2022/01/11 08:06:20;;;;;;;;;;;;;;;-11.06;93.58;102475.69;5093531;28;20294;-68
2022/01/11 08:08:47;;;;;;;;;;;;;;;-11.05;93.78;102472.41;5079643;28;19921;-72
2022/01/11 08:11:14;;;;;;;;;;;;;;;-11.03;93.75;102458.28;5071410;28;19936;-68
2022/01/11 08:13:40;;;;;;;;;;;;;;;-11.02;93.40;102477.59;5072614;28;19982;-65
2022/01/11 08:16:07;;;;;;;;;;;;;;;-10.99;93.65;102473.66;5072739;28;20285;-73
2022/01/11 08:18:33;;;;;;;;;;;;;;;-10.99;93.54;102460.22;5072488;28;20286;-71
2022/01/11 08:21:09;;;;;;;;;;;;;;;-10.93;93.52;102470.63;5072946;28;20374;-72
2022/01/11 08:23:37;;;;;;;;;;;;;;;-10.89;93.71;102454.97;5064498;28;20367;-77
2022/01/11 08:46:33;;;;;;;;;;;;;;;-10.49;93.61;102432.13;5076608;28;19927;-77
2022/01/11 08:49:01;;;;;;;;;;;;;;;-10.50;93.49;102427.03;5072231;28;20289;-79
2022/01/11 08:57:02;;;;;;;;;;;;;;;-10.56;93.52;102410.78;5030082;28;19949;-77
2022/01/11 09:02:05;;;;;;;;;;;;;;;-10.47;94.09;102402.88;5728486;22;19938;-77
2022/01/11 09:04:33;;;;;;;;;;;;;;;-10.43;94.38;102398.88;5092219;28;20292;-80
2022/01/11 09:06:59;;;;;;;;;;;;;;;-10.38;94.40;102397.50;5092604;28;19920;-76
2022/01/11 09:09:26;;;;;;;;;;;;;;;-10.33;94.46;102396.97;5092715;28;19920;-76
2022/01/11 09:14:22;;;;;;;;;;;;;;;-10.30;94.28;102381.16;5090617;28;19965;-76
2022/01/11 09:22:18;;;;;;;;;;;;;;;-10.26;94.26;102387.22;5073952;22;19926;-69
2022/01/11 09:24:45;;;;;;;;;;;;;;;-10.28;93.44;102374.59;5072482;28;19943;-76
2022/01/11 09:27:11;;;;;;;;;;;;;;;-10.34;93.71;102374.25;5071646;28;19964;-75
2022/01/11 09:29:38;;;;;;;;;;;;;;;-10.36;94.52;102378.31;5071409;28;19927;-72
2022/01/11 09:32:06;;;;;;;;;;;;;;;-10.39;93.29;102374.00;5072378;28;19925;-77
2022/01/11 09:34:32;;;;;;;;;;;;;;;-10.38;93.98;102379.88;5072040;28;19928;-77
2022/01/11 09:36:59;;;;;;;;;;;;;;;-10.41;94.02;102370.50;5072220;28;20267;-73
2022/01/11 09:39:27;;;;;;;;;;;;;;;-10.39;94.02;102373.13;5072186;28;19920;-77
2022/01/11 09:41:53;;;;;;;;;;;;;;;-10.31;93.70;102364.34;5072106;28;19927;-76
2022/01/11 09:44:20;;;;;;;;;;;;;;;-10.21;94.78;102370.72;5071862;28;19932;-75
2022/01/11 09:46:47;;;;;;;;;;;;;;;-10.18;94.32;102366.72;5071914;28;19920;-74
2022/01/11 09:49:14;;;;;;;;;;;;;;;-10.13;94.40;102355.25;5071895;28;20413;-77
2022/01/11 09:51:40;;;;;;;;;;;;;;;-10.13;94.59;102359.44;5071854;28;19921;-77
2022/01/11 09:54:08;;;;;;;;;;;;;;;-10.11;94.57;102360.38;5073914;28;19966;-76
2022/01/11 09:56:37;;;;;;;;;;;;;;;-10.13;93.91;102354.41;5075581;28;19920;-77
2022/01/11 09:59:03;;;;;;;;;;;;;;;-10.11;94.63;102355.34;5055339;28;19921;-77
2022/01/11 10:01:30;;;;;;;;;;;;;;;-10.12;94.40;102338.50;5055986;28;19943;-78
2022/01/11 10:03:59;;;;;;;;;;;;;;;-10.12;94.27;102341.91;5055971;28;19936;-76
2022/01/11 10:06:25;;;;;;;;;;;;;;;-10.08;94.81;102326.16;5055351;28;19925;-76
2022/01/11 10:08:52;;;;;;;;;;;;;;;-10.05;94.04;102337.19;5055313;28;19925;-76
2022/01/11 10:11:34;;;;;;;;;;;;;;;-10.04;94.80;102326.31;5055465;28;19927;-77
2022/01/11 10:14:16;;;;;;;;;;;;;;;-9.98;94.58;102322.50;5055411;28;19920;-76
2022/01/11 10:16:43;;;;;;;;;;;;;;;-9.94;95.02;102304.25;5055395;28;20279;-78
2022/01/11 10:19:19;;;;;;;;;;;;;;;-9.88;94.65;102296.16;5055218;28;20389;-77
2022/01/11 10:24:37;;;;;;;;;;;;;;;-9.87;95.22;102291.19;5051590;28;19924;-79
2022/01/11 10:27:05;;;;;;;;;;;;;;;-9.85;95.49;102306.38;5054956;28;19997;-78
2022/01/11 10:29:38;;;;;;;;;;;;;;;-9.84;94.72;102294.66;5055029;28;19943;-79
2022/01/11 10:50:17;;;;;;;;;;;;;;;-9.69;94.78;102255.16;5043170;22;19921;-79
2022/01/11 11:21:21;;;;;;;;;;;;;;;-9.32;95.00;102211.66;5547008;22;19928;-79
2022/01/11 11:23:49;;;;;;;;;;;;;;;-9.32;95.03;102209.16;5014277;28;19927;-79
2022/01/11 11:26:16;;;;;;;;;;;;;;;-9.32;95.53;102199.06;5014063;28;19972;-79
2022/01/11 11:58:43;;;;;;;;;;;;;;;-8.74;95.86;102148.84;5228001;22;19925;-79
2022/01/11 12:22:07;;;;;;;;;;;;;;;-8.20;96.07;102128.50;5920401;22;19922;-73
2022/01/11 12:24:37;;;;;;;;;;;;;;;-8.06;95.50;102169.53;5013085;28;19921;-77
2022/01/11 12:27:04;;;;;;;;;;;;;;;-7.96;95.71;102164.06;5013276;28;19930;-75
2022/01/11 12:29:31;;;;;;;;;;;;;;;-7.81;95.35;102149.53;5013013;28;19932;-75
2022/01/11 12:32:00;;;;;;;;;;;;;;;-7.78;95.50;102148.81;5012910;28;19921;-73
2022/01/11 12:34:45;;;;;;;;;;;;;;;-7.63;95.23;102131.75;5013117;28;19921;-75
2022/01/11 12:37:20;;;;;;;;;;;;;;;-7.56;95.61;102128.69;5013073;28;20288;-76
2022/01/11 12:39:58;;;;;;;;;;;;;;;-7.47;95.28;102128.22;5026864;28;19928;-73
2022/01/11 12:42:26;;;;;;;;;;;;;;;-7.45;95.39;102137.59;5032796;28;19921;-76
2022/01/11 12:47:40;;;;;;;;;;;;;;;-7.40;95.40;102129.31;5032817;28;19927;-76
2022/01/11 12:50:08;;;;;;;;;;;;;;;-7.39;95.11;102118.41;5032478;28;19920;-75
2022/01/11 12:52:36;;;;;;;;;;;;;;;-7.39;95.54;102111.69;5032037;28;19929;-73
2022/01/11 12:55:04;;;;;;;;;;;;;;;-7.41;95.47;102114.94;5008375;28;20337;-76
2022/01/11 12:57:33;;;;;;;;;;;;;;;-7.37;95.32;102106.66;4993209;28;19921;-75
2022/01/11 13:00:02;;;;;;;;;;;;;;;-7.39;95.43;102104.09;4993141;28;19922;-75
2022/01/11 13:02:30;;;;;;;;;;;;;;;-7.40;95.62;102101.50;4993115;28;19921;-77
2022/01/11 13:04:58;;;;;;;;;;;;;;;-7.34;95.66;102102.63;4993043;28;19929;-74
2022/01/11 13:07:26;;;;;;;;;;;;;;;-7.30;95.56;102096.00;5024048;28;19928;-77
2022/01/11 13:10:06;;;;;;;;;;;;;;;-7.31;95.57;102099.34;5032606;28;20019;-75
2022/01/11 13:12:36;;;;;;;;;;;;;;;-7.29;95.53;102102.81;5032191;28;19925;-75
2022/01/11 13:15:09;;;;;;;;;;;;;;;-7.28;95.43;102086.81;5032432;28;20476;-72
2022/01/11 13:17:47;;;;;;;;;;;;;;;-7.26;95.59;102101.25;5032247;28;19921;-77
2022/01/11 13:20:14;;;;;;;;;;;;;;;-7.24;95.49;102087.00;5032321;28;19925;-74
2022/01/11 13:22:53;;;;;;;;;;;;;;;-7.23;95.43;102078.59;5032222;28;20364;-75
2022/01/11 13:25:35;;;;;;;;;;;;;;;-7.20;95.30;102077.84;5032470;28;19925;-75
2022/01/11 13:28:01;;;;;;;;;;;;;;;-7.20;95.21;102075.31;5034057;28;19921;-77
2022/01/11 13:30:34;;;;;;;;;;;;;;;-7.15;95.30;102067.91;5036311;28;20024;-70
2022/01/11 13:33:00;;;;;;;;;;;;;;;-7.13;94.96;102069.72;5031634;28;20013;-77
2022/01/11 13:35:27;;;;;;;;;;;;;;;-7.14;95.19;102062.03;5015795;28;19922;-78
2022/01/11 13:37:54;;;;;;;;;;;;;;;-7.11;95.17;102072.31;5016055;28;19921;-75
2022/01/11 13:40:25;;;;;;;;;;;;;;;-7.09;95.32;102063.97;5015898;28;20387;-76
2022/01/11 13:43:01;;;;;;;;;;;;;;;-7.06;95.37;102065.75;5015870;28;20364;-78
2022/01/11 13:45:34;;;;;;;;;;;;;;;-7.06;95.60;102060.69;5015942;28;19921;-77
2022/01/11 13:48:08;;;;;;;;;;;;;;;-7.09;95.96;102058.91;5015737;28;19921;-78
2022/01/11 13:50:46;;;;;;;;;;;;;;;-7.03;96.32;102058.28;5015919;28;20386;-75
2022/01/11 13:53:19;;;;;;;;;;;;;;;-7.01;96.29;102052.47;5015730;28;19921;-78
2022/01/11 13:55:47;;;;;;;;;;;;;;;-6.95;96.53;102046.78;5015963;28;19921;-78
2022/01/11 13:58:16;;;;;;;;;;;;;;;-6.97;96.48;102047.50;5016001;28;19972;-75
2022/01/11 14:00:43;;;;;;;;;;;;;;;-6.96;96.79;102034.94;5017262;28;19928;-78
2022/01/11 14:03:14;;;;;;;;;;;;;;;-6.97;96.95;102037.41;5035548;28;19921;-78
2022/01/11 14:05:40;;;;;;;;;;;;;;;-6.97;96.67;102033.19;5035455;28;20298;-74
2022/01/11 14:08:10;;;;;;;;;;;;;;;-6.97;97.04;102028.13;5035557;28;19925;-77
2022/01/11 14:10:37;;;;;;;;;;;;;;;-6.97;97.21;102032.34;5035459;28;19925;-77
2022/01/11 14:13:06;;;;;;;;;;;;;;;-6.97;97.29;102032.34;5035176;28;19921;-76
2022/01/11 14:15:34;;;;;;;;;;;;;;;-6.98;97.40;102033.16;5034996;28;19921;-78
2022/01/11 14:18:01;;;;;;;;;;;;;;;-6.98;97.34;102028.09;5034893;28;19921;-78
2022/01/11 14:20:29;;;;;;;;;;;;;;;-7.02;97.20;102020.38;5035273;28;19921;-76
2022/01/11 14:22:56;;;;;;;;;;;;;;;-7.03;97.30;102026.25;5034792;28;20894;-78
2022/01/11 14:25:24;;;;;;;;;;;;;;;-7.03;97.18;102025.38;5034792;28;20011;-77
2022/01/11 14:27:58;;;;;;;;;;;;;;;-7.03;97.19;102021.19;5034754;28;19921;-76
2022/01/11 14:30:25;;;;;;;;;;;;;;;-7.05;97.51;102021.94;5015329;28;20289;-75
2022/01/11 14:32:54;;;;;;;;;;;;;;;-7.06;97.31;102008.41;5015068;28;20012;-78
2022/01/11 14:35:23;;;;;;;;;;;;;;;-7.05;97.31;102019.41;5014913;28;20392;-74
2022/01/11 14:37:59;;;;;;;;;;;;;;;-7.08;97.24;102010.03;5015360;28;19921;-78
2022/01/11 14:40:28;;;;;;;;;;;;;;;-7.09;97.23;102008.31;5014345;28;20292;-78
2022/01/11 14:42:55;;;;;;;;;;;;;;;-7.09;97.29;101992.25;5015023;28;20016;-77
2022/01/11 14:45:23;;;;;;;;;;;;;;;-7.11;97.36;101994.75;5014842;28;19926;-78
2022/01/11 14:47:52;;;;;;;;;;;;;;;-7.12;97.51;101994.66;5014867;28;19928;-74
2022/01/11 14:50:25;;;;;;;;;;;;;;;-7.15;97.30;101997.09;5014695;28;19928;-76
2022/01/11 14:52:57;;;;;;;;;;;;;;;-7.18;97.18;101996.97;5014714;28;19921;-75
2022/01/11 14:55:24;;;;;;;;;;;;;;;-7.21;97.22;101999.41;4999848;28;19928;-71
2022/01/11 14:58:01;;;;;;;;;;;;;;;-7.25;97.25;101994.22;5024241;28;20367;-76
2022/01/11 15:00:30;;;;;;;;;;;;;;;-7.21;97.24;101999.41;5034144;28;19921;-77
2022/01/11 15:02:56;;;;;;;;;;;;;;;-7.23;97.50;101995.13;5034455;28;19951;-77